Time;durP1;ratioP1;P1;durP2;ratioP2;P2;SDS_P1;SDS_P2;PMS_P1;PMS_P2;Temp;Humidity;BMP_temperature;BMP_pressure;BME280_temperature;BME280_humidity;BME280_pressure;Samples;Min_cycle;Max_cycle;Signal;HPM_P1;HPM_P2
2023/03/23 00:01:53;;;;;;;0.00;0.00;;;;;;;8.38;75.92;98165.59;7345362;19;20557;-57
2023/03/23 00:04:19;;;;;;;0.00;0.00;;;;;;;8.32;76.07;98151.13;7344691;19;20038;-58
2023/03/23 00:06:45;;;;;;;0.00;0.00;;;;;;;8.41;75.75;98165.41;7347555;19;20014;-58
2023/03/23 00:09:12;;;;;;;0.05;0.05;;;;;;;8.45;75.88;98171.28;7345237;19;20364;-57
2023/03/23 00:11:38;;;;;;;0.00;0.00;;;;;;;8.37;76.23;98163.94;7346036;19;20014;-57
2023/03/23 00:14:05;;;;;;;0.00;0.00;;;;;;;8.49;75.83;98163.25;7347487;19;20047;-58
2023/03/23 00:16:32;;;;;;;0.00;0.00;;;;;;;8.54;75.84;98168.19;7345659;19;20030;-57
2023/03/23 00:19:00;;;;;;;0.00;0.00;;;;;;;8.57;76.19;98187.09;7347329;19;21111;-57
2023/03/23 00:21:34;;;;;;;0.03;0.03;;;;;;;8.51;75.86;98166.59;7346298;19;20021;-57
2023/03/23 00:24:07;;;;;;;0.00;0.00;;;;;;;8.65;75.79;98178.00;7345894;19;20745;-58
2023/03/23 00:26:33;;;;;;;0.00;0.00;;;;;;;8.68;75.87;98193.47;7346099;19;20478;-58
2023/03/23 00:29:04;;;;;;;0.00;0.00;;;;;;;8.63;76.05;98174.66;7344166;19;20023;-57
2023/03/23 00:31:34;;;;;;;0.00;0.00;;;;;;;8.75;75.95;98181.78;7342000;19;20347;-58
2023/03/23 00:34:01;;;;;;;0.10;0.10;;;;;;;8.77;75.77;98169.53;7343333;19;20011;-57
2023/03/23 00:36:28;;;;;;;0.00;0.00;;;;;;;8.79;75.53;98178.91;7345119;19;20026;-58
2023/03/23 00:38:54;;;;;;;0.10;0.10;;;;;;;8.83;75.44;98166.59;7354458;19;20041;-57
2023/03/23 00:41:20;;;;;;;0.00;0.00;;;;;;;8.88;75.07;98167.16;7353923;19;20011;-58
2023/03/23 00:43:45;;;;;;;0.00;0.00;;;;;;;8.88;74.81;98164.56;7351672;19;20017;-57
2023/03/23 00:46:11;;;;;;;0.00;0.00;;;;;;;8.90;74.97;98177.47;7352536;19;22796;-58
2023/03/23 00:48:44;;;;;;;0.00;0.00;;;;;;;8.90;74.55;98167.91;7355478;19;20040;-58
2023/03/23 00:51:11;;;;;;;0.00;0.00;;;;;;;8.93;74.83;98172.94;7352354;19;20018;-57
2023/03/23 00:53:37;;;;;;;0.00;0.00;;;;;;;8.96;74.62;98177.97;7353774;19;20090;-58
2023/03/23 00:56:03;;;;;;;0.00;0.00;;;;;;;8.97;74.37;98179.66;7350894;19;20599;-58
2023/03/23 00:58:29;;;;;;;0.10;0.10;;;;;;;8.97;74.39;98187.47;7353126;19;20864;-57
2023/03/23 01:00:56;;;;;;;0.10;0.10;;;;;;;8.96;74.70;98180.56;7352958;19;20058;-58
2023/03/23 01:03:25;;;;;;;0.00;0.00;;;;;;;9.00;74.67;98179.47;7352429;19;20010;-58
2023/03/23 01:05:51;;;;;;;0.00;0.00;;;;;;;9.01;74.27;98183.75;7353181;19;20010;-58
2023/03/23 01:08:18;;;;;;;0.00;0.00;;;;;;;8.90;74.14;98162.69;7353173;19;20101;-58
2023/03/23 01:10:44;;;;;;;0.03;0.03;;;;;;;8.92;74.24;98166.06;7354528;19;20022;-58
2023/03/23 01:13:10;;;;;;;0.00;0.00;;;;;;;9.05;74.14;98205.25;7354777;19;20014;-58
2023/03/23 01:15:35;;;;;;;0.00;0.00;;;;;;;9.07;74.10;98186.03;7353575;19;20010;-58
2023/03/23 01:18:02;;;;;;;0.00;0.00;;;;;;;9.08;74.17;98172.09;7353022;19;20003;-58
2023/03/23 01:20:28;;;;;;;0.00;0.00;;;;;;;9.08;73.87;98179.06;7349099;19;20015;-58
2023/03/23 01:23:00;;;;;;;0.03;0.03;;;;;;;9.03;74.19;98162.88;7351432;19;20027;-58
2023/03/23 01:25:30;;;;;;;0.00;0.00;;;;;;;9.13;73.90;98187.44;7352772;19;20437;-59
2023/03/23 01:27:55;;;;;;;0.00;0.00;;;;;;;9.14;73.63;98180.47;7340122;19;20022;-58
2023/03/23 01:30:21;;;;;;;0.00;0.00;;;;;;;9.08;73.65;98197.28;7354315;19;20031;-57
2023/03/23 01:32:46;;;;;;;0.10;0.10;;;;;;;9.14;73.65;98183.91;7351978;19;20010;-58
2023/03/23 01:35:13;;;;;;;0.00;0.00;;;;;;;9.17;73.68;98196.72;7352937;19;20021;-58
2023/03/23 01:37:39;;;;;;;0.00;0.00;;;;;;;9.19;73.47;98175.84;7346378;19;20019;-58
2023/03/23 01:40:05;;;;;;;0.03;0.03;;;;;;;9.20;73.20;98206.16;7349586;19;20021;-58
2023/03/23 01:42:35;;;;;;;0.03;0.03;;;;;;;9.16;73.63;98186.41;7350208;19;20892;-58
2023/03/23 01:45:19;;;;;;;0.10;0.10;;;;;;;9.23;73.45;98186.00;7353080;19;20025;-58
2023/03/23 01:47:50;;;;;;;0.00;0.00;;;;;;;9.23;73.67;98190.38;7351612;19;20031;-58
2023/03/23 01:50:17;;;;;;;0.00;0.00;;;;;;;9.20;73.50;98180.13;7352383;19;20626;-58
2023/03/23 01:52:43;;;;;;;0.10;0.10;;;;;;;9.21;73.55;98192.19;7349050;19;20047;-57
2023/03/23 01:55:09;;;;;;;0.00;0.00;;;;;;;9.21;73.50;98185.22;7349392;19;20538;-57
2023/03/23 01:57:34;;;;;;;0.00;0.00;;;;;;;9.04;73.32;98160.16;7347065;19;20002;-57
2023/03/23 02:00:14;;;;;;;0.00;0.00;;;;;;;9.19;73.56;98188.84;7352884;19;20007;-56
2023/03/23 02:02:44;;;;;;;0.00;0.00;;;;;;;9.02;74.06;98162.03;7352808;19;20007;-57
2023/03/23 02:05:21;;;;;;;0.00;0.00;;;;;;;9.09;73.37;98168.53;7348964;19;20014;-57
2023/03/23 02:07:47;;;;;;;0.00;0.00;;;;;;;9.00;73.63;98169.06;7349666;19;20014;-57
2023/03/23 02:10:13;;;;;;;0.00;0.00;;;;;;;8.97;73.61;98168.38;7348902;19;25206;-57
2023/03/23 02:12:38;;;;;;;0.00;0.00;;;;;;;8.90;74.07;98156.66;7351913;19;20689;-56
2023/03/23 02:15:04;;;;;;;0.00;0.00;;;;;;;8.87;73.76;98156.81;7350606;19;21512;-58
2023/03/23 02:17:42;;;;;;;0.00;0.00;;;;;;;8.82;74.17;98164.91;7351745;19;20109;-57
2023/03/23 02:20:07;;;;;;;;;;;;;;;8.81;73.80;98151.03;7346039;19;20010;-57
2023/03/23 02:22:36;;;;;;;0.10;0.10;;;;;;;8.77;74.06;98151.31;7352839;19;19937;-56
2023/03/23 02:25:04;;;;;;;0.00;0.00;;;;;;;8.74;74.16;98148.88;7351916;19;20011;-56
2023/03/23 02:28:09;;;;;;;0.00;0.00;;;;;;;8.70;74.54;98144.78;7352698;19;20814;-57
2023/03/23 02:31:11;;;;;;;0.10;0.10;;;;;;;8.66;74.34;98144.09;7250474;19;2004240;-57
2023/03/23 02:34:01;;;;;;;0.10;0.10;;;;;;;8.62;74.51;98139.16;7249064;19;2004433;-57
2023/03/23 02:36:58;;;;;;;0.00;0.00;;;;;;;8.58;74.79;98144.53;7351062;19;20481;-57
2023/03/23 02:39:29;;;;;;;0.00;0.00;;;;;;;8.56;74.90;98148.97;7247402;19;2004877;-57
2023/03/23 02:42:01;;;;;;;0.00;0.00;;;;;;;8.55;74.89;98136.88;7349078;19;20873;-57
2023/03/23 02:44:31;;;;;;;0.10;0.10;;;;;;;8.24;75.30;98085.72;7347393;19;19999;-57
2023/03/23 02:46:59;;;;;;;0.00;0.00;;;;;;;8.54;75.57;98134.38;7345038;19;20098;-57
2023/03/23 02:49:28;;;;;;;0.10;0.10;;;;;;;8.55;76.15;98128.25;7351355;19;20010;-58
2023/03/23 02:51:56;;;;;;;0.10;0.10;;;;;;;8.55;75.70;98123.88;7346414;19;20002;-58
2023/03/23 02:54:25;;;;;;;0.00;0.00;;;;;;;8.58;75.68;98125.50;7349742;19;20006;-58
2023/03/23 02:56:52;;;;;;;0.00;0.00;;;;;;;8.60;75.41;98122.78;7348813;19;20031;-57
2023/03/23 02:59:17;;;;;;;0.10;0.10;;;;;;;8.61;75.99;98124.47;7334772;19;20014;-57
2023/03/23 03:01:42;;;;;;;0.10;0.10;;;;;;;8.63;75.95;98122.63;7349088;19;20022;-57
2023/03/23 03:04:20;;;;;;;0.00;0.00;;;;;;;8.67;75.42;98118.91;7345833;19;20014;-57
2023/03/23 03:06:48;;;;;;;;;;;;;;;8.70;74.74;98108.34;7344412;19;20015;-57
2023/03/23 03:09:22;;;;;;;0.00;0.00;;;;;;;8.69;75.52;98117.09;7346194;19;19969;-58
2023/03/23 03:11:53;;;;;;;0.00;0.00;;;;;;;8.71;75.16;98116.06;7340613;19;20024;-57
2023/03/23 03:14:26;;;;;;;0.00;0.00;;;;;;;8.72;75.39;98116.91;7351958;19;20514;-58
2023/03/23 03:17:13;;;;;;;0.00;0.00;;;;;;;8.72;75.30;98111.72;7354411;19;20014;-57
2023/03/23 03:19:44;;;;;;;0.10;0.10;;;;;;;8.74;75.32;98117.66;7349767;19;20085;-58
2023/03/23 03:22:11;;;;;;;0.00;0.00;;;;;;;8.75;75.35;98122.78;7351657;19;20014;-57
2023/03/23 03:24:37;;;;;;;0.00;0.00;;;;;;;8.63;75.79;98086.22;7355568;19;20037;-57
2023/03/23 03:27:10;;;;;;;0.00;0.00;;;;;;;8.80;75.94;98117.31;7351609;19;20117;-58
2023/03/23 03:29:41;;;;;;;0.00;0.00;;;;;;;8.83;75.67;98104.13;7354210;19;20368;-57
2023/03/23 03:32:11;;;;;;;0.00;0.00;;;;;;;8.84;75.57;98111.00;7343419;19;20558;-57
2023/03/23 03:34:37;;;;;;;0.10;0.10;;;;;;;8.86;75.47;98096.13;7351182;19;20530;-57
2023/03/23 03:37:05;;;;;;;0.10;0.10;;;;;;;8.89;75.65;98085.56;7346834;19;20025;-57
2023/03/23 03:39:34;;;;;;;0.10;0.10;;;;;;;8.88;75.79;98091.69;7352688;19;20657;-58
2023/03/23 03:42:00;;;;;;;0.10;0.10;;;;;;;8.90;75.43;98091.59;7352679;19;20068;-58
2023/03/23 03:44:26;;;;;;;0.10;0.10;;;;;;;8.86;75.72;98098.75;7352104;19;20384;-57
2023/03/23 03:46:51;;;;;;;0.00;0.00;;;;;;;8.89;75.41;98093.38;7353671;19;20017;-57
2023/03/23 03:49:17;;;;;;;0.10;0.10;;;;;;;8.83;75.57;98075.50;7353638;19;20735;-57
2023/03/23 03:51:42;;;;;;;0.10;0.10;;;;;;;8.79;75.62;98071.41;7354759;19;20002;-57
2023/03/23 03:54:08;;;;;;;0.00;0.00;;;;;;;8.89;75.28;98071.72;7353082;19;20024;-58
2023/03/23 03:56:40;;;;;;;0.00;0.00;;;;;;;8.89;75.02;98066.50;7352990;19;20014;-57
2023/03/23 03:59:07;;;;;;;0.00;0.00;;;;;;;8.61;75.32;98020.41;7346490;19;20096;-57
2023/03/23 04:01:33;;;;;;;0.10;0.10;;;;;;;8.88;74.91;98052.66;7356402;19;20798;-58
2023/03/23 04:03:58;;;;;;;0.00;0.00;;;;;;;8.86;75.75;98061.47;7345954;19;20011;-58
2023/03/23 04:06:27;;;;;;;0.00;0.00;;;;;;;8.84;75.68;98045.97;7330565;19;20013;-57
2023/03/23 04:08:55;;;;;;;0.05;0.05;;;;;;;8.83;75.53;98046.88;7348888;19;20010;-57
2023/03/23 04:11:20;;;;;;;0.00;0.00;;;;;;;8.77;75.68;98036.84;7354098;19;20023;-59
2023/03/23 04:13:46;;;;;;;0.00;0.00;;;;;;;8.81;75.46;98048.72;7352225;19;20025;-57
2023/03/23 04:16:11;;;;;;;0.08;0.08;;;;;;;8.78;75.26;98035.91;7350880;19;20091;-58
2023/03/23 04:18:37;;;;;;;0.00;0.00;;;;;;;8.76;75.38;98040.34;7344982;19;20581;-58
2023/03/23 04:21:03;;;;;;;0.10;0.10;;;;;;;8.78;75.60;98054.13;7336468;19;20725;-58
2023/03/23 04:23:31;;;;;;;0.00;0.00;;;;;;;8.77;75.24;98042.03;7347144;19;20530;-57
2023/03/23 04:25:57;;;;;;;;;;;;;;;8.79;74.93;98048.00;7351444;19;20011;-57
2023/03/23 04:28:24;;;;;;;0.00;0.00;;;;;;;8.76;75.10;98066.38;7352308;19;19914;-58
2023/03/23 04:30:54;;;;;;;0.00;0.00;;;;;;;8.75;74.88;98049.09;7350564;19;20538;-57
2023/03/23 04:33:24;;;;;;;0.00;0.00;;;;;;;8.76;75.10;98066.38;7351162;19;20021;-58
2023/03/23 04:35:51;;;;;;;0.00;0.00;;;;;;;8.57;74.80;98033.63;7346034;19;20070;-57
2023/03/23 04:38:23;;;;;;;0.00;0.00;;;;;;;8.65;75.53;98040.13;7351381;19;20018;-58
2023/03/23 04:40:52;;;;;;;0.00;0.00;;;;;;;8.70;75.36;98051.13;7350386;19;20003;-57
2023/03/23 04:43:21;;;;;;;0.05;0.05;;;;;;;8.55;75.31;98029.41;7351341;19;20033;-58
2023/03/23 04:45:51;;;;;;;0.10;0.10;;;;;;;8.52;75.26;98027.00;7351801;19;20011;-57
2023/03/23 04:48:18;;;;;;;0.05;0.05;;;;;;;8.69;75.26;98059.84;7346880;19;20045;-57
2023/03/23 04:50:44;;;;;;;0.00;0.00;;;;;;;8.69;75.29;98054.66;7351136;19;20010;-58
2023/03/23 04:53:09;;;;;;;0.03;0.03;;;;;;;8.69;75.67;98052.03;7336468;19;20014;-57
2023/03/23 04:55:36;;;;;;;0.10;0.10;;;;;;;8.68;75.61;98047.78;7353242;19;20531;-58
2023/03/23 04:58:06;;;;;;;0.10;0.10;;;;;;;8.71;75.24;98044.97;7349277;19;20406;-58
2023/03/23 05:00:35;;;;;;;0.05;0.05;;;;;;;8.70;75.35;98066.72;7351587;19;20551;-58
2023/03/23 05:03:01;;;;;;;0.10;0.10;;;;;;;8.69;75.96;98054.66;7350182;19;20022;-58
2023/03/23 05:05:30;;;;;;;0.00;0.00;;;;;;;8.70;75.28;98066.72;7348748;19;20046;-58
2023/03/23 05:07:56;;;;;;;0.00;0.00;;;;;;;8.32;75.34;98009.91;7348482;19;20014;-58
2023/03/23 05:10:22;;;;;;;0.00;0.00;;;;;;;8.68;75.53;98063.38;7347243;19;20027;-58
2023/03/23 05:12:47;;;;;;;0.00;0.00;;;;;;;8.68;75.37;98055.56;7349042;19;20018;-58
2023/03/23 05:15:15;;;;;;;0.00;0.00;;;;;;;8.62;75.62;98054.16;7349462;19;20434;-57
2023/03/23 05:17:43;;;;;;;0.00;0.00;;;;;;;8.69;75.47;98055.47;7355425;19;20039;-58
2023/03/23 05:20:12;;;;;;;0.10;0.10;;;;;;;8.69;75.85;98045.06;7349459;19;20533;-58
2023/03/23 05:22:38;;;;;;;0.00;0.00;;;;;;;8.68;75.57;98059.00;7350982;19;20019;-58
2023/03/23 05:25:05;;;;;;;0.00;0.00;;;;;;;8.69;75.35;98059.84;7356321;19;20019;-58
2023/03/23 05:27:32;;;;;;;0.00;0.00;;;;;;;8.71;75.12;98057.97;7357225;19;20056;-58
2023/03/23 05:29:58;;;;;;;0.00;0.00;;;;;;;8.69;75.61;98049.44;7356921;19;20036;-58
2023/03/23 05:32:30;;;;;;;0.00;0.00;;;;;;;8.71;75.38;98053.63;7355753;19;20014;-58
2023/03/23 05:34:58;;;;;;;0.00;0.00;;;;;;;8.69;75.42;98078.06;7352931;19;20078;-58
2023/03/23 05:37:24;;;;;;;0.00;0.00;;;;;;;8.67;75.55;98062.53;7357231;19;20027;-58
2023/03/23 05:39:53;;;;;;;0.00;0.00;;;;;;;8.58;75.40;98037.88;7351442;19;20513;-59
2023/03/23 05:42:20;;;;;;;0.00;0.00;;;;;;;8.70;75.46;98061.50;7357996;19;20490;-58
2023/03/23 05:44:46;;;;;;;0.00;0.00;;;;;;;8.70;75.11;98074.53;7350663;19;20015;-58
2023/03/23 05:47:12;;;;;;;0.10;0.10;;;;;;;8.72;75.34;98077.91;7358374;19;20762;-59
2023/03/23 05:49:38;;;;;;;0.00;0.00;;;;;;;8.71;75.42;98073.59;7354917;19;20090;-58
2023/03/23 05:52:03;;;;;;;0.00;0.00;;;;;;;8.71;75.31;98063.19;7351415;19;20023;-57
2023/03/23 05:54:29;;;;;;;0.03;0.03;;;;;;;8.71;75.34;98061.41;7356662;19;20058;-58
2023/03/23 05:56:54;;;;;;;0.10;0.10;;;;;;;8.72;75.75;98070.09;7355025;19;20035;-58
2023/03/23 05:59:20;;;;;;;0.10;0.10;;;;;;;8.70;75.70;98071.91;7356238;19;21035;-58
2023/03/23 06:01:45;;;;;;;0.00;0.00;;;;;;;8.70;75.50;98071.91;7355894;19;20007;-58
2023/03/23 06:04:11;;;;;;;0.10;0.10;;;;;;;8.57;75.31;98062.22;7357298;19;20029;-58
2023/03/23 06:06:37;;;;;;;0.10;0.10;;;;;;;8.71;75.67;98071.81;7357254;19;20018;-57
2023/03/23 06:09:02;;;;;;;0.00;0.00;;;;;;;8.72;75.50;98080.50;7356167;19;20633;-58
2023/03/23 06:11:28;;;;;;;0.10;0.10;;;;;;;8.71;75.54;98078.78;7355400;19;20479;-58
2023/03/23 06:13:54;;;;;;;0.00;0.00;;;;;;;8.72;75.25;98059.69;7354002;19;20022;-58
2023/03/23 06:16:19;;;;;;;0.00;0.00;;;;;;;8.71;75.41;98073.59;7357946;19;20393;-58
2023/03/23 06:18:46;;;;;;;0.10;0.10;;;;;;;8.59;75.55;98043.91;7353345;19;20010;-58
2023/03/23 06:21:12;;;;;;;0.10;0.10;;;;;;;8.62;75.36;98054.16;7357222;19;20022;-58
2023/03/23 06:23:38;;;;;;;0.00;0.00;;;;;;;8.70;75.98;98077.13;7356109;19;20010;-58
2023/03/23 06:26:06;;;;;;;0.08;0.08;;;;;;;8.70;75.62;98066.72;7353942;19;20471;-58
2023/03/23 06:28:33;;;;;;;0.00;0.00;;;;;;;8.58;75.42;98053.50;7356238;19;20078;-58
2023/03/23 06:31:04;;;;;;;0.00;0.00;;;;;;;8.72;75.30;98081.34;7351502;19;20010;-58
2023/03/23 06:33:30;;;;;;;0.00;0.00;;;;;;;8.70;75.52;98062.34;7356772;19;20566;-58
2023/03/23 06:35:56;;;;;;;0.00;0.00;;;;;;;8.70;75.63;98066.72;7352791;19;20014;-58
2023/03/23 06:38:21;;;;;;;0.08;0.08;;;;;;;8.71;75.53;98068.38;7356025;19;20010;-59
2023/03/23 06:40:48;;;;;;;0.00;0.00;;;;;;;8.69;75.82;98070.25;7354140;19;20768;-58
2023/03/23 06:43:13;;;;;;;0.10;0.10;;;;;;;8.68;75.62;98066.81;7352442;19;20704;-59
2023/03/23 06:45:40;;;;;;;0.10;0.10;;;;;;;8.69;75.52;98065.06;7357202;19;20027;-58
2023/03/23 06:48:06;;;;;;;0.00;0.00;;;;;;;8.67;75.73;98046.94;7355022;19;20014;-58
2023/03/23 06:50:32;;;;;;;0.00;0.00;;;;;;;8.65;75.87;98055.75;7348188;19;20013;-57
2023/03/23 06:52:57;;;;;;;0.00;0.00;;;;;;;8.72;75.94;98070.94;7352516;19;20015;-57
2023/03/23 06:55:22;;;;;;;0.00;0.00;;;;;;;8.72;75.84;98081.34;7350373;19;20018;-58
2023/03/23 06:57:48;;;;;;;0.05;0.05;;;;;;;8.73;75.62;98082.16;7344133;19;20014;-58
2023/03/23 07:00:15;;;;;;;0.10;0.10;;;;;;;8.71;75.58;98079.63;7352163;19;20018;-58
2023/03/23 07:02:40;;;;;;;0.10;0.10;;;;;;;8.66;76.06;98067.81;7354616;19;20042;-58
2023/03/23 07:05:08;;;;;;;0.00;0.00;;;;;;;8.76;75.67;98084.56;7354679;19;20074;-58
2023/03/23 07:07:35;;;;;;;0.10;0.10;;;;;;;8.77;75.60;98081.06;7356013;19;20578;-57
2023/03/23 07:10:01;;;;;;;0.00;0.00;;;;;;;8.79;75.77;98092.22;7351842;19;20032;-58
2023/03/23 07:12:27;;;;;;;0.00;0.00;;;;;;;8.81;75.91;98101.59;7353037;19;20097;-58
2023/03/23 07:14:52;;;;;;;0.00;0.00;;;;;;;8.81;75.67;98090.34;7350758;19;20030;-58
2023/03/23 07:17:18;;;;;;;0.05;0.05;;;;;;;8.84;75.41;98090.19;7355048;19;20014;-58
2023/03/23 07:19:43;;;;;;;0.05;0.05;;;;;;;8.88;75.68;98096.91;7352561;19;20010;-59
2023/03/23 07:22:09;;;;;;;0.10;0.10;;;;;;;8.87;75.78;98090.03;7353048;19;20098;-58
2023/03/23 07:24:35;;;;;;;0.00;0.00;;;;;;;8.91;75.69;98078.50;7337008;19;20026;-58
2023/03/23 07:27:01;;;;;;;0.00;0.00;;;;;;;8.94;75.54;98086.13;7344922;19;20030;-57
2023/03/23 07:29:27;;;;;;;0.00;0.00;;;;;;;8.98;75.42;98086.81;7348917;19;20026;-58
2023/03/23 07:31:53;;;;;;;0.00;0.00;;;;;;;8.99;75.84;98094.50;7349200;19;20007;-59
2023/03/23 07:34:19;;;;;;;0.00;0.00;;;;;;;8.96;76.15;98084.25;7349169;19;20045;-58
2023/03/23 07:36:45;;;;;;;0.00;0.00;;;;;;;9.06;75.58;98095.81;7344220;19;20515;-58
2023/03/23 07:39:11;;;;;;;0.10;0.10;;;;;;;9.13;75.56;98092.88;7339337;19;20851;-58
2023/03/23 07:41:37;;;;;;;0.10;0.10;;;;;;;9.17;76.03;98089.16;7324669;19;20936;-58
2023/03/23 07:44:03;;;;;;;0.00;0.00;;;;;;;9.23;75.64;98094.03;7334715;19;20643;-58
2023/03/23 07:46:29;;;;;;;0.10;0.10;;;;;;;9.29;75.77;98101.47;7330025;19;20858;-58
2023/03/23 07:48:55;;;;;;;0.00;0.00;;;;;;;9.35;75.45;98101.09;7339881;19;20049;-59
2023/03/23 07:51:21;;;;;;;0.00;0.00;;;;;;;9.43;75.50;98103.22;7338596;19;20555;-58
2023/03/23 07:53:46;;;;;;;0.00;0.00;;;;;;;9.37;75.69;98078.38;7342306;19;20052;-64
2023/03/23 07:56:14;;;;;;;0.00;0.00;;;;;;;9.55;75.65;98095.53;7344913;19;20014;-63
2023/03/23 07:58:44;;;;;;;0.03;0.03;;;;;;;9.61;75.63;98096.94;7340570;19;20019;-63
2023/03/23 08:01:10;;;;;;;0.00;0.00;;;;;;;9.54;75.16;98080.84;7341315;19;20019;-63
2023/03/23 08:03:35;;;;;;;0.00;0.00;;;;;;;9.72;75.08;98106.69;7343188;19;20010;-64
2023/03/23 08:06:01;;;;;;;0.00;0.00;;;;;;;9.80;75.51;98107.09;7337525;19;20570;-64
2023/03/23 08:08:26;;;;;;;0.10;0.10;;;;;;;9.87;75.27;98108.38;7341117;19;20007;-64
2023/03/23 08:10:52;;;;;;;0.00;0.00;;;;;;;9.97;75.40;98109.47;7344098;19;20884;-64
2023/03/23 08:13:18;;;;;;;0.00;0.00;;;;;;;10.04;75.10;98105.59;7342609;19;20015;-63
2023/03/23 08:15:44;;;;;;;0.00;0.00;;;;;;;10.03;75.00;98090.00;7342359;19;20014;-64
2023/03/23 08:18:10;;;;;;;0.00;0.00;;;;;;;10.23;74.69;98110.47;7341885;19;20021;-64
2023/03/23 08:20:36;;;;;;;0.00;0.00;;;;;;;10.28;74.78;98102.38;7343938;19;20016;-63
2023/03/23 08:23:02;;;;;;;0.00;0.00;;;;;;;10.38;74.49;98113.91;7341455;19;20010;-64
2023/03/23 08:25:31;;;;;;;0.00;0.00;;;;;;;10.50;74.54;98112.31;7341874;19;20007;-64
2023/03/23 08:27:57;;;;;;;0.00;0.00;;;;;;;10.62;74.44;98114.97;7340586;19;20443;-64
2023/03/23 08:30:24;;;;;;;0.05;0.05;;;;;;;10.74;74.11;98115.09;7344118;19;20052;-64
2023/03/23 08:32:51;;;;;;;0.07;0.07;;;;;;;10.78;73.87;98100.94;7340395;19;20006;-64
2023/03/23 08:35:17;;;;;;;0.10;0.10;;;;;;;10.96;73.69;98099.72;7337881;19;20509;-60
2023/03/23 08:37:43;;;;;;;0.00;0.00;;;;;;;11.05;73.74;98091.28;7344291;19;20018;-64
2023/03/23 08:40:11;;;;;;;0.00;0.00;;;;;;;11.22;73.30;98097.16;7336082;19;20105;-63
2023/03/23 08:42:47;;;;;;;0.00;0.00;;;;;;;11.38;73.45;98095.19;7343377;19;20006;-64
2023/03/23 08:45:17;;;;;;;0.00;0.00;;;;;;;11.37;73.10;98078.69;7344938;19;20006;-64
2023/03/23 08:47:44;;;;;;;0.00;0.00;;;;;;;11.68;72.96;98094.88;7345903;19;20396;-64
2023/03/23 08:50:14;;;;;;;0.00;0.00;;;;;;;11.84;72.10;98094.69;7345616;19;20048;-60
2023/03/23 08:52:40;;;;;;;0.08;0.08;;;;;;;11.90;72.07;98086.41;7334461;19;20408;-64
2023/03/23 08:55:08;;;;;;;0.08;0.08;;;;;;;12.05;72.09;98090.56;7340181;19;20013;-64
2023/03/23 08:57:35;;;;;;;0.00;0.00;;;;;;;12.24;71.88;98099.75;7345418;19;20094;-64
2023/03/23 09:00:13;;;;;;;0.10;0.10;;;;;;;12.34;71.84;98098.97;7350902;19;20328;-64
2023/03/23 09:02:38;;;;;;;;;;;;;;;12.62;72.01;98116.16;7353302;19;20031;-64
2023/03/23 09:05:04;;;;;;;0.00;0.00;;;;;;;12.73;71.04;98102.28;7348497;19;19970;-64
2023/03/23 09:07:29;;;;;;;0.10;0.10;;;;;;;12.87;70.45;98104.69;7353061;19;20014;-63
2023/03/23 09:09:55;;;;;;;0.10;0.10;;;;;;;13.10;70.05;98120.53;7350311;19;20127;-65
2023/03/23 09:12:20;;;;;;;0.00;0.00;;;;;;;13.23;69.70;98100.38;7351805;19;20035;-64
2023/03/23 09:14:46;;;;;;;0.10;0.10;;;;;;;13.34;69.26;98102.16;7350501;19;20031;-65
2023/03/23 09:17:11;;;;;;;0.10;0.10;;;;;;;13.43;69.77;98117.19;7348508;19;20026;-64
2023/03/23 09:19:37;;;;;;;0.10;0.10;;;;;;;13.56;69.47;98112.69;7346233;19;20751;-64
2023/03/23 09:22:03;;;;;;;0.03;0.03;;;;;;;13.72;68.99;98099.22;7350691;19;20066;-64
2023/03/23 09:24:29;;;;;;;0.10;0.10;;;;;;;13.87;68.97;98105.09;7349333;19;20019;-64
2023/03/23 09:26:55;;;;;;;0.10;0.10;;;;;;;14.11;69.10;98118.09;7348248;19;20014;-64
2023/03/23 09:29:20;;;;;;;0.03;0.03;;;;;;;14.28;67.58;98110.53;7350473;19;20022;-64
2023/03/23 09:31:46;;;;;;;0.10;0.10;;;;;;;14.41;67.70;98125.34;7347089;19;20018;-64
2023/03/23 09:34:18;;;;;;;0.10;0.10;;;;;;;14.53;67.10;98113.88;7349479;19;21096;-63
2023/03/23 09:36:44;;;;;;;0.10;0.10;;;;;;;14.59;66.81;98113.38;7349134;19;20019;-64
2023/03/23 09:39:11;;;;;;;0.10;0.10;;;;;;;14.75;66.59;98124.34;7348977;19;20701;-64
2023/03/23 09:41:53;;;;;;;0.10;0.10;;;;;;;14.85;66.51;98124.44;7349274;19;20022;-64
2023/03/23 09:44:47;;;;;;;0.10;0.10;;;;;;;14.91;65.52;98136.22;7346981;19;20002;-64
2023/03/23 09:47:28;;;;;;;0.10;0.10;;;;;;;14.93;65.18;98140.38;7249388;19;2004569;-64
2023/03/23 09:50:16;;;;;;;0.10;0.10;;;;;;;14.96;65.16;98134.91;7350879;19;21011;-64
2023/03/23 09:52:47;;;;;;;0.10;0.10;;;;;;;14.98;65.33;98119.81;7349212;19;20487;-64
2023/03/23 09:55:15;;;;;;;0.05;0.05;;;;;;;15.03;65.32;98127.34;7350284;19;20007;-64
2023/03/23 09:57:54;;;;;;;0.10;0.10;;;;;;;15.14;65.60;98124.66;7349628;19;20026;-64
2023/03/23 10:00:30;;;;;;;0.10;0.10;;;;;;;15.22;64.86;98114.34;7347236;19;20018;-64
2023/03/23 10:03:19;;;;;;;0.10;0.10;;;;;;;15.38;64.94;98113.06;7348610;19;20014;-64
2023/03/23 10:05:47;;;;;;;0.10;0.10;;;;;;;15.42;64.55;98122.38;7349612;19;20686;-64
2023/03/23 10:08:27;;;;;;;0.05;0.05;;;;;;;15.54;65.27;98111.63;7350296;19;20011;-65
2023/03/23 10:11:06;;;;;;;0.10;0.10;;;;;;;15.66;65.16;98120.34;7349491;19;20026;-64
2023/03/23 10:13:38;;;;;;;0.10;0.10;;;;;;;15.86;63.97;98109.91;7343188;19;20284;-64
2023/03/23 10:16:31;;;;;;;0.00;0.00;;;;;;;16.09;64.72;98121.91;7349599;19;20038;-64
2023/03/23 10:19:15;;;;;;;0.10;0.10;;;;;;;16.21;62.06;98112.94;7245098;19;2004570;-64
2023/03/23 10:21:47;;;;;;;0.10;0.10;;;;;;;16.44;62.05;98120.66;7348267;19;20082;-64
2023/03/23 10:24:16;;;;;;;0.10;0.10;;;;;;;16.62;60.17;98119.00;7346746;19;20022;-64
2023/03/23 10:26:54;;;;;;;0.10;0.10;;;;;;;16.69;60.42;98114.88;7350654;19;20681;-64
2023/03/23 10:29:26;;;;;;;0.10;0.10;;;;;;;16.94;59.82;98128.53;7347917;19;20018;-64
2023/03/23 10:32:00;;;;;;;0.10;0.10;;;;;;;17.02;59.73;98116.31;7346481;19;20844;-64
2023/03/23 10:34:34;;;;;;;0.10;0.10;;;;;;;17.16;58.41;98101.88;7348555;19;20366;-64
2023/03/23 10:37:06;;;;;;;0.00;0.00;;;;;;;17.30;58.76;98114.66;7347668;19;20011;-64
2023/03/23 10:39:41;;;;;;;0.10;0.10;;;;;;;17.33;59.24;98111.72;7347371;19;20020;-64
2023/03/23 10:42:09;;;;;;;0.10;0.10;;;;;;;17.24;58.94;98120.50;7348356;19;20039;-64
2023/03/23 10:44:35;;;;;;;0.10;0.10;;;;;;;17.37;57.22;98117.53;7349751;19;20018;-64
2023/03/23 10:47:06;;;;;;;0.10;0.10;;;;;;;17.46;57.22;98119.34;7348615;19;20029;-64
2023/03/23 10:49:43;;;;;;;0.10;0.10;;;;;;;17.46;58.18;98113.25;7347707;19;20092;-64
2023/03/23 10:52:23;;;;;;;0.10;0.10;;;;;;;17.61;58.53;98102.09;7339255;19;20026;-64
2023/03/23 10:54:54;;;;;;;0.10;0.10;;;;;;;17.73;57.28;98094.84;7349115;19;20021;-64
2023/03/23 10:57:29;;;;;;;0.10;0.10;;;;;;;18.03;57.26;98109.63;7346897;19;20094;-64
2023/03/23 11:00:00;;;;;;;0.00;0.00;;;;;;;18.13;57.67;98094.56;7349186;19;20822;-64
2023/03/23 11:02:28;;;;;;;0.10;0.10;;;;;;;18.41;56.14;98100.69;7348894;19;20013;-64
2023/03/23 11:05:04;;;;;;;0.10;0.10;;;;;;;18.67;55.82;98123.75;7349628;19;20006;-64
2023/03/23 11:07:34;;;;;;;0.10;0.10;;;;;;;18.74;55.36;98114.28;7347776;19;20094;-64
2023/03/23 11:10:23;;;;;;;0.10;0.10;;;;;;;18.84;55.95;98120.31;7348133;19;20034;-64
2023/03/23 11:12:49;;;;;;;0.00;0.00;;;;;;;18.51;54.16;98078.66;7349968;19;20025;-64
2023/03/23 11:15:37;;;;;;;0.10;0.10;;;;;;;18.88;53.94;98156.06;7344314;19;21332;-65
2023/03/23 11:18:10;;;;;;;0.00;0.00;;;;;;;18.76;52.93;98087.72;7243408;19;2004575;-64
2023/03/23 11:20:39;;;;;;;0.10;0.10;;;;;;;18.82;53.34;98109.09;7345011;19;20674;-64
2023/03/23 11:23:29;;;;;;;0.10;0.10;;;;;;;18.86;54.24;98104.34;7344471;19;20070;-64
2023/03/23 11:26:14;;;;;;;0.10;0.10;;;;;;;18.85;54.48;98098.19;7347200;19;20665;-64
2023/03/23 11:28:55;;;;;;;0.10;0.10;;;;;;;18.99;53.47;98090.72;7341786;19;20121;-64
2023/03/23 11:31:44;;;;;;;0.10;0.10;;;;;;;19.12;53.13;98104.41;7342798;19;20829;-64
2023/03/23 11:34:18;;;;;;;0.10;0.10;;;;;;;19.23;52.63;98087.44;7344761;19;20043;-64
2023/03/23 11:36:54;;;;;;;0.10;0.10;;;;;;;19.21;52.59;98058.50;7345399;19;20002;-64
2023/03/23 11:39:20;;;;;;;0.10;0.10;;;;;;;19.36;50.74;98086.06;7341966;19;20022;-64
2023/03/23 11:41:45;;;;;;;0.10;0.10;;;;;;;19.28;51.55;98093.94;7345646;19;20975;-65
2023/03/23 11:44:12;;;;;;;0.10;0.10;;;;;;;19.23;50.32;98090.94;7345341;19;20014;-64
2023/03/23 11:46:51;;;;;;;0.00;0.00;;;;;;;19.13;50.18;98090.19;7349208;19;20018;-63
2023/03/23 11:50:03;;;;;;;0.10;0.10;;;;;;;18.88;51.60;98097.06;7345889;19;20017;-64